sensor_id;sensor_type;location;lat;lon;timestamp;pressure;altitude;pressure_sealevel;temperature;humidity
77587;BME280;66744;49.716;17.158;2023-05-07T00:02:32;99248.88;;;13.03;75.29
77587;BME280;66744;49.716;17.158;2023-05-07T00:05:33;99255.59;;;12.89;75.22
77587;BME280;66744;49.716;17.158;2023-05-07T00:08:34;99242.41;;;12.84;76.20
77587;BME280;66744;49.716;17.158;2023-05-07T00:11:35;99244.38;;;12.83;75.20
77587;BME280;66744;49.716;17.158;2023-05-07T00:14:37;99242.84;;;12.82;75.65
77587;BME280;66744;49.716;17.158;2023-05-07T00:17:38;99239.63;;;12.84;76.12
77587;BME280;66744;49.716;17.158;2023-05-07T00:20:39;99237.00;;;12.80;75.40
77587;BME280;66744;49.716;17.158;2023-05-07T00:23:41;99230.69;;;12.80;75.29
77587;BME280;66744;49.716;17.158;2023-05-07T00:26:42;99230.97;;;12.73;77.45
77587;BME280;66744;49.716;17.158;2023-05-07T00:29:43;99235.50;;;12.67;76.92
77587;BME280;66744;49.716;17.158;2023-05-07T00:32:44;99238.81;;;12.62;76.21
77587;BME280;66744;49.716;17.158;2023-05-07T00:35:49;99231.53;;;12.55;75.08
77587;BME280;66744;49.716;17.158;2023-05-07T00:38:51;99237.16;;;12.52;75.46
77587;BME280;66744;49.716;17.158;2023-05-07T00:41:52;99238.47;;;12.47;76.53
77587;BME280;66744;49.716;17.158;2023-05-07T00:44:53;99230.88;;;12.51;75.90
77587;BME280;66744;49.716;17.158;2023-05-07T00:47:57;99236.94;;;12.46;76.62
77587;BME280;66744;49.716;17.158;2023-05-07T00:50:59;99239.03;;;12.42;75.85
77587;BME280;66744;49.716;17.158;2023-05-07T00:54:02;99230.22;;;12.47;75.74
77587;BME280;66744;49.716;17.158;2023-05-07T00:57:03;99232.88;;;12.38;76.95
77587;BME280;66744;49.716;17.158;2023-05-07T01:00:05;99228.78;;;12.43;75.81
77587;BME280;66744;49.716;17.158;2023-05-07T01:03:08;99230.22;;;12.47;76.81
77587;BME280;66744;49.716;17.158;2023-05-07T01:06:10;99232.53;;;12.49;76.31
77587;BME280;66744;49.716;17.158;2023-05-07T01:09:14;99228.34;;;12.44;76.12
77587;BME280;66744;49.716;17.158;2023-05-07T01:12:15;99227.25;;;12.42;77.17
77587;BME280;66744;49.716;17.158;2023-05-07T01:15:17;99225.16;;;12.46;78.13
77587;BME280;66744;49.716;17.158;2023-05-07T01:18:18;99224.28;;;12.49;77.84
77587;BME280;66744;49.716;17.158;2023-05-07T01:21:25;99218.44;;;12.47;77.77
77587;BME280;66744;49.716;17.158;2023-05-07T01:24:31;99226.69;;;12.47;77.33
77587;BME280;66744;49.716;17.158;2023-05-07T01:27:34;99231.66;;;12.52;76.90
77587;BME280;66744;49.716;17.158;2023-05-07T01:30:45;99223.69;;;12.54;76.77
77587;BME280;66744;49.716;17.158;2023-05-07T01:33:51;99221.94;;;12.47;76.39
77587;BME280;66744;49.716;17.158;2023-05-07T01:36:54;99222.09;;;12.44;77.13
77587;BME280;66744;49.716;17.158;2023-05-07T01:39:57;99230.22;;;12.47;76.28
77587;BME280;66744;49.716;17.158;2023-05-07T01:42:58;99223.72;;;12.41;75.62
77587;BME280;66744;49.716;17.158;2023-05-07T01:46:00;99229.22;;;12.41;76.09
77587;BME280;66744;49.716;17.158;2023-05-07T01:49:02;99233.53;;;12.42;75.98
77587;BME280;66744;49.716;17.158;2023-05-07T01:52:03;99232.22;;;12.47;75.47
77587;BME280;66744;49.716;17.158;2023-05-07T01:55:06;99232.66;;;12.33;75.30
77587;BME280;66744;49.716;17.158;2023-05-07T01:58:07;99236.06;;;12.24;76.17
77587;BME280;66744;49.716;17.158;2023-05-07T02:01:09;99230.78;;;12.17;75.77
77587;BME280;66744;49.716;17.158;2023-05-07T02:04:10;99228.91;;;12.14;76.63
77587;BME280;66744;49.716;17.158;2023-05-07T02:07:11;99237.06;;;12.05;75.67
77587;BME280;66744;49.716;17.158;2023-05-07T02:10:13;99240.59;;;12.05;76.02
77587;BME280;66744;49.716;17.158;2023-05-07T02:13:14;99230.31;;;12.06;76.16
77587;BME280;66744;49.716;17.158;2023-05-07T02:16:15;99242.78;;;12.10;77.44
77587;BME280;66744;49.716;17.158;2023-05-07T02:19:17;99238.06;;;12.11;75.70
77587;BME280;66744;49.716;17.158;2023-05-07T02:22:19;99241.13;;;12.00;75.41
77587;BME280;66744;49.716;17.158;2023-05-07T02:25:20;99235.06;;;11.93;76.40
77587;BME280;66744;49.716;17.158;2023-05-07T02:28:22;99245.31;;;11.92;77.53
77587;BME280;66744;49.716;17.158;2023-05-07T02:31:31;99250.03;;;11.92;77.50
77587;BME280;66744;49.716;17.158;2023-05-07T02:34:35;99246.19;;;11.89;76.79
77587;BME280;66744;49.716;17.158;2023-05-07T02:37:36;99254.63;;;11.82;78.00
77587;BME280;66744;49.716;17.158;2023-05-07T02:40:37;99253.88;;;11.82;77.75
77587;BME280;66744;49.716;17.158;2023-05-07T02:43:41;99266.66;;;11.76;78.11
77587;BME280;66744;49.716;17.158;2023-05-07T02:46:42;99263.72;;;11.66;78.13
77587;BME280;66744;49.716;17.158;2023-05-07T02:49:46;99267.69;;;11.65;78.39
77587;BME280;66744;49.716;17.158;2023-05-07T02:52:48;99274.38;;;11.64;77.35
77587;BME280;66744;49.716;17.158;2023-05-07T02:55:49;99261.31;;;11.68;78.16
77587;BME280;66744;49.716;17.158;2023-05-07T02:58:50;99270.28;;;11.73;76.86
77587;BME280;66744;49.716;17.158;2023-05-07T03:01:53;99264.78;;;11.73;77.72
77587;BME280;66744;49.716;17.158;2023-05-07T03:04:56;99266.38;;;11.70;77.29
77587;BME280;66744;49.716;17.158;2023-05-07T03:07:57;99262.88;;;11.69;78.36
77587;BME280;66744;49.716;17.158;2023-05-07T03:10:58;99267.59;;;11.69;78.15
77587;BME280;66744;49.716;17.158;2023-05-07T03:14:00;99267.00;;;11.61;78.12
77587;BME280;66744;49.716;17.158;2023-05-07T03:17:02;99278.22;;;11.54;77.60
77587;BME280;66744;49.716;17.158;2023-05-07T03:20:04;99273.13;;;11.53;77.26
77587;BME280;66744;49.716;17.158;2023-05-07T03:23:06;99274.78;;;11.50;77.47
77587;BME280;66744;49.716;17.158;2023-05-07T03:26:07;99273.34;;;11.46;78.39
77587;BME280;66744;49.716;17.158;2023-05-07T03:29:09;99279.72;;;11.43;78.31
77587;BME280;66744;49.716;17.158;2023-05-07T03:32:10;99283.22;;;11.43;78.55
77587;BME280;66744;49.716;17.158;2023-05-07T03:35:12;99291.06;;;11.45;78.02
77587;BME280;66744;49.716;17.158;2023-05-07T03:38:14;99284.44;;;11.42;78.95
77587;BME280;66744;49.716;17.158;2023-05-07T03:41:16;99282.13;;;11.41;78.63
77587;BME280;66744;49.716;17.158;2023-05-07T03:44:18;99294.50;;;11.49;78.68
77587;BME280;66744;49.716;17.158;2023-05-07T03:47:20;99293.81;;;11.45;78.82
77587;BME280;66744;49.716;17.158;2023-05-07T03:50:22;99296.56;;;11.45;78.36
77587;BME280;66744;49.716;17.158;2023-05-07T03:53:24;99304.34;;;11.46;77.64
77587;BME280;66744;49.716;17.158;2023-05-07T03:56:25;99300.00;;;11.49;78.54
77587;BME280;66744;49.716;17.158;2023-05-07T03:59:29;99298.78;;;11.50;78.63
77587;BME280;66744;49.716;17.158;2023-05-07T04:02:32;99301.66;;;11.59;78.26
77587;BME280;66744;49.716;17.158;2023-05-07T04:05:34;99304.22;;;11.66;76.29
77587;BME280;66744;49.716;17.158;2023-05-07T04:08:37;99306.38;;;11.75;77.29
77587;BME280;66744;49.716;17.158;2023-05-07T04:11:40;99311.00;;;11.78;77.54
77587;BME280;66744;49.716;17.158;2023-05-07T04:14:44;99315.56;;;11.84;76.95
77587;BME280;66744;49.716;17.158;2023-05-07T04:17:46;99308.41;;;11.87;75.75
77587;BME280;66744;49.716;17.158;2023-05-07T04:20:49;99310.59;;;11.92;76.08
77587;BME280;66744;49.716;17.158;2023-05-07T04:23:51;99300.28;;;11.96;75.36
77587;BME280;66744;49.716;17.158;2023-05-07T04:26:52;99317.03;;;12.01;75.50
77587;BME280;66744;49.716;17.158;2023-05-07T04:29:55;99326.47;;;12.00;75.74
77587;BME280;66744;49.716;17.158;2023-05-07T04:33:00;99325.16;;;11.92;75.58
77587;BME280;66744;49.716;17.158;2023-05-07T04:36:04;99336.81;;;11.84;75.80
77587;BME280;66744;49.716;17.158;2023-05-07T04:39:09;99341.19;;;11.81;76.92
77587;BME280;66744;49.716;17.158;2023-05-07T04:42:16;99336.66;;;11.75;76.14
77587;BME280;66744;49.716;17.158;2023-05-07T04:45:18;99346.88;;;11.74;76.15
77587;BME280;66744;49.716;17.158;2023-05-07T04:48:21;99353.84;;;11.79;77.51
77587;BME280;66744;49.716;17.158;2023-05-07T04:51:24;99352.22;;;11.81;75.56
77587;BME280;66744;49.716;17.158;2023-05-07T04:54:25;99345.28;;;11.89;76.62
77587;BME280;66744;49.716;17.158;2023-05-07T04:57:27;99345.75;;;12.00;76.17
77587;BME280;66744;49.716;17.158;2023-05-07T05:00:29;99347.56;;;12.19;75.10
77587;BME280;66744;49.716;17.158;2023-05-07T05:03:31;99353.34;;;12.38;74.09
77587;BME280;66744;49.716;17.158;2023-05-07T05:06:33;99348.94;;;12.53;73.31
77587;BME280;66744;49.716;17.158;2023-05-07T05:09:37;99354.34;;;12.69;73.47
77587;BME280;66744;49.716;17.158;2023-05-07T05:12:38;99350.59;;;12.88;73.02
77587;BME280;66744;49.716;17.158;2023-05-07T05:15:40;99364.59;;;13.06;72.23
77587;BME280;66744;49.716;17.158;2023-05-07T05:18:43;99360.19;;;13.09;71.37
77587;BME280;66744;49.716;17.158;2023-05-07T05:21:47;99357.44;;;13.09;70.57
77587;BME280;66744;49.716;17.158;2023-05-07T05:24:48;99357.84;;;13.20;69.96
77587;BME280;66744;49.716;17.158;2023-05-07T05:27:50;99364.34;;;13.26;70.53
77587;BME280;66744;49.716;17.158;2023-05-07T05:30:51;99367.53;;;13.37;70.98
77587;BME280;66744;49.716;17.158;2023-05-07T05:33:53;99372.63;;;13.39;68.88
77587;BME280;66744;49.716;17.158;2023-05-07T05:36:54;99376.09;;;13.52;69.48
77587;BME280;66744;49.716;17.158;2023-05-07T05:39:56;99378.59;;;13.71;69.07
77587;BME280;66744;49.716;17.158;2023-05-07T05:42:59;99389.06;;;13.76;67.59
77587;BME280;66744;49.716;17.158;2023-05-07T05:46:01;99385.66;;;13.94;67.57
77587;BME280;66744;49.716;17.158;2023-05-07T05:49:04;99385.50;;;14.10;66.30
77587;BME280;66744;49.716;17.158;2023-05-07T05:52:06;99387.84;;;14.21;65.81
77587;BME280;66744;49.716;17.158;2023-05-07T05:55:08;99386.56;;;14.13;64.88
77587;BME280;66744;49.716;17.158;2023-05-07T05:58:11;99390.16;;;14.22;64.22
77587;BME280;66744;49.716;17.158;2023-05-07T06:01:17;99406.16;;;14.27;63.10
77587;BME280;66744;49.716;17.158;2023-05-07T06:04:20;99399.50;;;14.37;61.73
77587;BME280;66744;49.716;17.158;2023-05-07T06:07:21;99396.78;;;14.46;59.95
77587;BME280;66744;49.716;17.158;2023-05-07T06:10:24;99393.13;;;14.50;60.50
77587;BME280;66744;49.716;17.158;2023-05-07T06:13:25;99398.66;;;14.50;58.30
77587;BME280;66744;49.716;17.158;2023-05-07T06:16:27;99407.59;;;14.54;59.73
77587;BME280;66744;49.716;17.158;2023-05-07T06:19:28;99406.56;;;14.60;58.79
77587;BME280;66744;49.716;17.158;2023-05-07T06:22:32;99411.47;;;14.65;58.81
77587;BME280;66744;49.716;17.158;2023-05-07T06:25:33;99413.84;;;14.76;57.63
77587;BME280;66744;49.716;17.158;2023-05-07T06:28:35;99414.00;;;14.72;56.44
77587;BME280;66744;49.716;17.158;2023-05-07T06:31:38;99419.38;;;14.76;57.10
77587;BME280;66744;49.716;17.158;2023-05-07T06:34:42;99415.69;;;14.79;56.08
77587;BME280;66744;49.716;17.158;2023-05-07T06:37:44;99412.34;;;14.84;55.97
77587;BME280;66744;49.716;17.158;2023-05-07T06:40:51;99417.81;;;15.06;55.77
77587;BME280;66744;49.716;17.158;2023-05-07T06:43:57;99421.72;;;15.26;54.20
77587;BME280;66744;49.716;17.158;2023-05-07T06:47:11;99423.66;;;15.47;55.23
77587;BME280;66744;49.716;17.158;2023-05-07T06:50:14;99424.41;;;15.48;54.25
77587;BME280;66744;49.716;17.158;2023-05-07T06:53:18;99425.53;;;15.60;54.81
77587;BME280;66744;49.716;17.158;2023-05-07T06:56:20;99423.38;;;15.54;53.52
77587;BME280;66744;49.716;17.158;2023-05-07T06:59:23;99435.66;;;15.53;55.42
77587;BME280;66744;49.716;17.158;2023-05-07T07:02:25;99432.38;;;15.37;54.47
77587;BME280;66744;49.716;17.158;2023-05-07T07:05:26;99435.41;;;15.30;52.32
77587;BME280;66744;49.716;17.158;2023-05-07T07:08:28;99447.25;;;15.30;52.26
77587;BME280;66744;49.716;17.158;2023-05-07T07:11:30;99446.75;;;15.53;53.98
77587;BME280;66744;49.716;17.158;2023-05-07T07:14:34;99444.91;;;15.69;52.86
77587;BME280;66744;49.716;17.158;2023-05-07T07:17:39;99437.06;;;15.58;52.92
77587;BME280;66744;49.716;17.158;2023-05-07T07:20:41;99441.16;;;15.44;53.42
77587;BME280;66744;49.716;17.158;2023-05-07T07:23:43;99458.06;;;15.37;53.71
77587;BME280;66744;49.716;17.158;2023-05-07T07:26:45;99450.31;;;15.14;52.45
77587;BME280;66744;49.716;17.158;2023-05-07T07:29:50;99448.06;;;15.00;55.18
77587;BME280;66744;49.716;17.158;2023-05-07T07:32:53;99457.44;;;14.93;54.64
77587;BME280;66744;49.716;17.158;2023-05-07T07:35:59;99457.69;;;14.86;53.25
77587;BME280;66744;49.716;17.158;2023-05-07T07:39:00;99456.69;;;14.71;54.06
77587;BME280;66744;49.716;17.158;2023-05-07T07:42:04;99456.88;;;14.77;55.17
77587;BME280;66744;49.716;17.158;2023-05-07T07:45:06;99459.94;;;14.79;55.52
77587;BME280;66744;49.716;17.158;2023-05-07T07:48:14;99466.38;;;14.76;54.31
77587;BME280;66744;49.716;17.158;2023-05-07T07:51:18;99474.84;;;14.72;55.32
77587;BME280;66744;49.716;17.158;2023-05-07T07:54:22;99482.53;;;14.77;54.66
77587;BME280;66744;49.716;17.158;2023-05-07T07:57:24;99483.94;;;14.82;55.50
77587;BME280;66744;49.716;17.158;2023-05-07T08:00:27;99483.88;;;14.73;55.01
77587;BME280;66744;49.716;17.158;2023-05-07T08:03:31;99495.09;;;14.48;54.91
77587;BME280;66744;49.716;17.158;2023-05-07T08:06:34;99483.44;;;14.31;56.12
77587;BME280;66744;49.716;17.158;2023-05-07T08:09:39;99499.16;;;14.21;56.82
77587;BME280;66744;49.716;17.158;2023-05-07T08:12:42;99500.63;;;14.13;57.32
77587;BME280;66744;49.716;17.158;2023-05-07T08:15:44;99501.84;;;14.12;55.48
77587;BME280;66744;49.716;17.158;2023-05-07T08:18:46;99507.69;;;14.14;56.22
77587;BME280;66744;49.716;17.158;2023-05-07T08:21:48;99495.03;;;14.26;56.03
77587;BME280;66744;49.716;17.158;2023-05-07T08:24:51;99495.50;;;14.37;56.51
77587;BME280;66744;49.716;17.158;2023-05-07T08:27:55;99500.16;;;14.49;56.03
77587;BME280;66744;49.716;17.158;2023-05-07T08:30:56;99501.72;;;14.50;54.69
77587;BME280;66744;49.716;17.158;2023-05-07T08:34:01;99518.34;;;14.37;55.34
77587;BME280;66744;49.716;17.158;2023-05-07T08:37:03;99520.03;;;14.35;55.97
77587;BME280;66744;49.716;17.158;2023-05-07T08:40:07;99526.69;;;14.25;55.89
77587;BME280;66744;49.716;17.158;2023-05-07T08:43:13;99528.03;;;14.08;56.50
77587;BME280;66744;49.716;17.158;2023-05-07T08:46:20;99530.78;;;14.08;55.78
77587;BME280;66744;49.716;17.158;2023-05-07T08:49:24;99533.13;;;14.09;55.05
77587;BME280;66744;49.716;17.158;2023-05-07T08:52:27;99527.50;;;14.00;56.03
77587;BME280;66744;49.716;17.158;2023-05-07T08:55:29;99530.59;;;14.02;55.08
77587;BME280;66744;49.716;17.158;2023-05-07T08:58:31;99536.41;;;14.17;56.46
77587;BME280;66744;49.716;17.158;2023-05-07T09:01:34;99541.19;;;14.16;55.38
77587;BME280;66744;49.716;17.158;2023-05-07T09:04:37;99553.41;;;14.28;55.51
77587;BME280;66744;49.716;17.158;2023-05-07T09:07:43;99541.34;;;14.34;54.90
77587;BME280;66744;49.716;17.158;2023-05-07T09:10:48;99537.84;;;14.56;54.84
77587;BME280;66744;49.716;17.158;2023-05-07T09:13:55;99546.81;;;14.60;54.89
77587;BME280;66744;49.716;17.158;2023-05-07T09:17:01;99557.41;;;14.61;54.56
77587;BME280;66744;49.716;17.158;2023-05-07T09:20:06;99557.66;;;14.76;52.96
77587;BME280;66744;49.716;17.158;2023-05-07T09:23:08;99557.16;;;14.68;53.03
77587;BME280;66744;49.716;17.158;2023-05-07T09:26:10;99560.19;;;14.83;54.12
77587;BME280;66744;49.716;17.158;2023-05-07T09:29:16;99565.00;;;14.91;53.43
77587;BME280;66744;49.716;17.158;2023-05-07T09:32:18;99556.25;;;14.93;54.24
77587;BME280;66744;49.716;17.158;2023-05-07T09:35:20;99566.31;;;15.09;54.74
77587;BME280;66744;49.716;17.158;2023-05-07T09:38:36;99564.34;;;15.09;53.70
77587;BME280;66744;49.716;17.158;2023-05-07T09:41:45;99564.69;;;15.11;52.02
77587;BME280;66744;49.716;17.158;2023-05-07T09:45:00;99565.63;;;15.17;52.70
77587;BME280;66744;49.716;17.158;2023-05-07T09:48:27;99560.75;;;15.30;51.51
77587;BME280;66744;49.716;17.158;2023-05-07T09:51:43;99581.19;;;15.24;51.69
77587;BME280;66744;49.716;17.158;2023-05-07T09:54:51;99575.59;;;15.15;52.55
77587;BME280;66744;49.716;17.158;2023-05-07T09:57:58;99581.06;;;15.06;51.78
77587;BME280;66744;49.716;17.158;2023-05-07T10:01:04;99574.31;;;14.85;50.73
77587;BME280;66744;49.716;17.158;2023-05-07T10:04:07;99579.47;;;14.95;51.93
77587;BME280;66744;49.716;17.158;2023-05-07T10:07:14;99578.38;;;14.93;51.65
77587;BME280;66744;49.716;17.158;2023-05-07T10:10:41;99583.59;;;14.91;51.64
77587;BME280;66744;49.716;17.158;2023-05-07T10:13:57;99589.44;;;14.71;51.95
77587;BME280;66744;49.716;17.158;2023-05-07T10:17:02;99595.94;;;14.77;51.94
77587;BME280;66744;49.716;17.158;2023-05-07T10:20:06;99590.03;;;14.66;52.00
77587;BME280;66744;49.716;17.158;2023-05-07T10:23:13;99589.41;;;14.84;52.13
77587;BME280;66744;49.716;17.158;2023-05-07T10:26:24;99590.72;;;15.01;49.72
77587;BME280;66744;49.716;17.158;2023-05-07T10:33:03;99590.06;;;15.19;50.99
77587;BME280;66744;49.716;17.158;2023-05-07T10:36:22;99588.16;;;15.07;50.88
77587;BME280;66744;49.716;17.158;2023-05-07T10:39:37;99588.09;;;15.19;50.64
77587;BME280;66744;49.716;17.158;2023-05-07T10:42:59;99587.78;;;15.17;50.97
77587;BME280;66744;49.716;17.158;2023-05-07T10:46:15;99596.56;;;15.25;49.57
77587;BME280;66744;49.716;17.158;2023-05-07T10:49:21;99600.16;;;15.34;49.25
77587;BME280;66744;49.716;17.158;2023-05-07T10:52:30;99589.44;;;15.45;49.56
77587;BME280;66744;49.716;17.158;2023-05-07T11:06:16;99606.28;;;15.91;49.41
77587;BME280;66744;49.716;17.158;2023-05-07T11:10:00;99602.59;;;15.85;48.65
77587;BME280;66744;49.716;17.158;2023-05-07T11:13:55;99613.75;;;15.72;49.24
77587;BME280;66744;49.716;17.158;2023-05-07T11:17:10;99605.41;;;15.63;47.84
77587;BME280;66744;49.716;17.158;2023-05-07T11:20:18;99618.97;;;15.39;49.40
77587;BME280;66744;49.716;17.158;2023-05-07T11:26:49;99610.00;;;15.57;48.29
77587;BME280;66744;49.716;17.158;2023-05-07T11:29:53;99621.47;;;16.17;50.83
77587;BME280;66744;49.716;17.158;2023-05-07T11:32:54;99629.19;;;16.40;47.94
77587;BME280;66744;49.716;17.158;2023-05-07T11:35:57;99630.38;;;16.12;49.70
77587;BME280;66744;49.716;17.158;2023-05-07T11:39:30;99642.28;;;16.40;48.08
77587;BME280;66744;49.716;17.158;2023-05-07T11:42:37;99641.69;;;16.36;46.05
77587;BME280;66744;49.716;17.158;2023-05-07T11:45:39;99638.75;;;16.39;47.51
77587;BME280;66744;49.716;17.158;2023-05-07T11:48:42;99647.97;;;16.36;47.77
77587;BME280;66744;49.716;17.158;2023-05-07T11:51:44;99650.38;;;17.10;46.83
77587;BME280;66744;49.716;17.158;2023-05-07T11:54:55;99655.31;;;17.85;44.24
77587;BME280;66744;49.716;17.158;2023-05-07T11:57:58;99654.22;;;17.91;43.15
77587;BME280;66744;49.716;17.158;2023-05-07T12:01:00;99663.34;;;18.24;42.29
77587;BME280;66744;49.716;17.158;2023-05-07T12:04:03;99658.25;;;16.85;45.62
77587;BME280;66744;49.716;17.158;2023-05-07T12:07:04;99666.59;;;16.18;47.69
77587;BME280;66744;49.716;17.158;2023-05-07T12:10:06;99668.69;;;16.04;46.42
77587;BME280;66744;49.716;17.158;2023-05-07T12:13:21;99671.66;;;16.19;45.74
77587;BME280;66744;49.716;17.158;2023-05-07T12:16:23;99666.94;;;16.38;45.79
77587;BME280;66744;49.716;17.158;2023-05-07T12:19:24;99682.16;;;16.15;47.39
77587;BME280;66744;49.716;17.158;2023-05-07T12:22:28;99690.41;;;15.75;47.43
77587;BME280;66744;49.716;17.158;2023-05-07T12:25:36;99695.41;;;15.59;47.74
77587;BME280;66744;49.716;17.158;2023-05-07T12:28:38;99693.44;;;15.03;47.14
77587;BME280;66744;49.716;17.158;2023-05-07T12:31:43;99699.28;;;14.71;48.52
77587;BME280;66744;49.716;17.158;2023-05-07T12:34:49;99699.88;;;14.66;49.36
77587;BME280;66744;49.716;17.158;2023-05-07T12:37:58;99694.06;;;14.85;49.05
77587;BME280;66744;49.716;17.158;2023-05-07T12:41:00;99698.50;;;14.83;48.43
77587;BME280;66744;49.716;17.158;2023-05-07T12:44:04;99681.28;;;14.66;49.57
77587;BME280;66744;49.716;17.158;2023-05-07T12:47:05;99684.97;;;14.85;49.34
77587;BME280;66744;49.716;17.158;2023-05-07T12:50:07;99689.19;;;15.33;49.97
77587;BME280;66744;49.716;17.158;2023-05-07T12:53:10;99700.22;;;15.02;48.93
77587;BME280;66744;49.716;17.158;2023-05-07T12:56:15;99704.47;;;14.81;49.12
77587;BME280;66744;49.716;17.158;2023-05-07T12:59:16;99706.13;;;14.79;49.72
77587;BME280;66744;49.716;17.158;2023-05-07T13:02:18;99694.91;;;14.61;46.71
77587;BME280;66744;49.716;17.158;2023-05-07T13:05:19;99705.66;;;14.46;47.21
77587;BME280;66744;49.716;17.158;2023-05-07T13:08:25;99707.75;;;14.29;48.46
77587;BME280;66744;49.716;17.158;2023-05-07T13:11:27;99708.94;;;14.28;49.26
77587;BME280;66744;49.716;17.158;2023-05-07T13:14:28;99711.16;;;14.08;49.41
77587;BME280;66744;49.716;17.158;2023-05-07T13:17:29;99716.91;;;14.14;50.80
77587;BME280;66744;49.716;17.158;2023-05-07T13:20:32;99706.88;;;14.45;50.05
77587;BME280;66744;49.716;17.158;2023-05-07T13:23:33;99708.00;;;14.82;50.02
77587;BME280;66744;49.716;17.158;2023-05-07T13:26:35;99707.56;;;14.83;50.07
77587;BME280;66744;49.716;17.158;2023-05-07T13:29:36;99724.97;;;14.59;51.04
77587;BME280;66744;49.716;17.158;2023-05-07T13:32:37;99723.31;;;14.23;50.36
77587;BME280;66744;49.716;17.158;2023-05-07T13:35:38;99714.16;;;14.01;51.44
77587;BME280;66744;49.716;17.158;2023-05-07T13:38:39;99730.31;;;14.15;50.59
77587;BME280;66744;49.716;17.158;2023-05-07T13:41:41;99724.66;;;14.06;51.80
77587;BME280;66744;49.716;17.158;2023-05-07T13:44:42;99734.91;;;13.93;51.49
77587;BME280;66744;49.716;17.158;2023-05-07T13:47:45;99744.31;;;13.83;52.24
77587;BME280;66744;49.716;17.158;2023-05-07T13:50:47;99741.97;;;13.81;52.88
77587;BME280;66744;49.716;17.158;2023-05-07T13:53:48;99750.00;;;13.63;54.08
77587;BME280;66744;49.716;17.158;2023-05-07T13:56:49;99756.31;;;13.35;53.35
77587;BME280;66744;49.716;17.158;2023-05-07T14:02:11;99753.75;;;13.57;52.91
77587;BME280;66744;49.716;17.158;2023-05-07T14:05:21;99753.41;;;14.09;50.81
77587;BME280;66744;49.716;17.158;2023-05-07T14:08:26;99744.00;;;14.31;49.09
77587;BME280;66744;49.716;17.158;2023-05-07T14:11:27;99730.16;;;13.81;49.77
77587;BME280;66744;49.716;17.158;2023-05-07T14:14:28;99737.78;;;13.48;51.80
77587;BME280;66744;49.716;17.158;2023-05-07T14:17:30;99738.09;;;13.38;52.12
77587;BME280;66744;49.716;17.158;2023-05-07T14:20:31;99746.41;;;13.21;52.03
77587;BME280;66744;49.716;17.158;2023-05-07T14:23:33;99737.38;;;13.05;52.97
77587;BME280;66744;49.716;17.158;2023-05-07T14:26:37;99744.94;;;12.88;53.34
77587;BME280;66744;49.716;17.158;2023-05-07T14:29:38;99743.66;;;12.76;53.12
77587;BME280;66744;49.716;17.158;2023-05-07T14:32:39;99753.81;;;12.63;52.64
77587;BME280;66744;49.716;17.158;2023-05-07T14:35:41;99750.09;;;12.70;52.32
77587;BME280;66744;49.716;17.158;2023-05-07T14:38:43;99750.59;;;12.81;51.84
77587;BME280;66744;49.716;17.158;2023-05-07T14:41:44;99744.09;;;12.59;53.55
77587;BME280;66744;49.716;17.158;2023-05-07T14:44:45;99744.22;;;12.68;53.59
77587;BME280;66744;49.716;17.158;2023-05-07T14:47:48;99742.94;;;12.72;53.53
77587;BME280;66744;49.716;17.158;2023-05-07T14:50:50;99750.53;;;12.85;54.24
77587;BME280;66744;49.716;17.158;2023-05-07T14:53:52;99750.44;;;12.88;54.39
77587;BME280;66744;49.716;17.158;2023-05-07T14:56:53;99743.84;;;12.98;54.74
77587;BME280;66744;49.716;17.158;2023-05-07T14:59:54;99754.56;;;12.96;55.67
77587;BME280;66744;49.716;17.158;2023-05-07T15:03:05;99756.03;;;12.68;56.00
77587;BME280;66744;49.716;17.158;2023-05-07T15:06:07;99757.94;;;12.71;55.10
77587;BME280;66744;49.716;17.158;2023-05-07T15:09:08;99749.41;;;12.82;54.37
77587;BME280;66744;49.716;17.158;2023-05-07T15:12:10;99748.88;;;12.71;54.39
77587;BME280;66744;49.716;17.158;2023-05-07T15:15:12;99743.38;;;12.87;55.10
77587;BME280;66744;49.716;17.158;2023-05-07T15:18:19;99761.38;;;12.92;52.99
77587;BME280;66744;49.716;17.158;2023-05-07T15:21:28;99757.81;;;13.07;54.47
77587;BME280;66744;49.716;17.158;2023-05-07T15:24:42;99760.56;;;13.07;53.03
77587;BME280;66744;49.716;17.158;2023-05-07T15:27:45;99768.38;;;13.12;52.48
77587;BME280;66744;49.716;17.158;2023-05-07T15:30:47;99785.25;;;13.43;51.57
77587;BME280;66744;49.716;17.158;2023-05-07T15:33:48;99780.84;;;13.46;50.29
77587;BME280;66744;49.716;17.158;2023-05-07T15:36:49;99779.50;;;13.09;52.06
77587;BME280;66744;49.716;17.158;2023-05-07T15:39:52;99793.69;;;12.75;52.79
77587;BME280;66744;49.716;17.158;2023-05-07T15:42:56;99790.75;;;12.50;54.02
77587;BME280;66744;49.716;17.158;2023-05-07T15:45:57;99789.94;;;12.17;55.59
77587;BME280;66744;49.716;17.158;2023-05-07T15:49:01;99786.91;;;11.92;56.30
77587;BME280;66744;49.716;17.158;2023-05-07T15:52:05;99784.88;;;11.76;57.24
77587;BME280;66744;49.716;17.158;2023-05-07T15:55:07;99778.31;;;11.70;56.17
77587;BME280;66744;49.716;17.158;2023-05-07T15:58:09;99783.16;;;11.62;58.01
77587;BME280;66744;49.716;17.158;2023-05-07T16:01:10;99777.72;;;11.59;57.17
77587;BME280;66744;49.716;17.158;2023-05-07T16:04:12;99768.84;;;11.51;56.91
77587;BME280;66744;49.716;17.158;2023-05-07T16:07:13;99779.63;;;11.42;57.50
77587;BME280;66744;49.716;17.158;2023-05-07T16:10:14;99795.66;;;11.47;58.46
77587;BME280;66744;49.716;17.158;2023-05-07T16:13:16;99797.47;;;11.34;58.18
77587;BME280;66744;49.716;17.158;2023-05-07T16:16:21;99800.22;;;11.11;59.62
77587;BME280;66744;49.716;17.158;2023-05-07T16:19:22;99790.38;;;10.90;59.60
77587;BME280;66744;49.716;17.158;2023-05-07T16:22:24;99793.38;;;10.76;60.12